Time;durP1;ratioP1;P1;durP2;ratioP2;P2;SDS_P1;SDS_P2;PMS_P1;PMS_P2;Temp;Humidity;BMP_temperature;BMP_pressure;BME280_temperature;BME280_humidity;BME280_pressure;Samples;Min_cycle;Max_cycle;Signal;HPM_P1;HPM_P2
2023/04/03 00:01:27;;;;;;;3.87;1.40;;;;;;;10.43;65.50;64037.44;5011365;28;20187;-56
2023/04/03 00:03:52;;;;;;;2.10;1.50;;;;;;;10.18;66.23;64010.09;5011051;28;20198;-53
2023/04/03 00:06:18;;;;;;;1.87;1.50;;;;;;;10.04;67.39;63995.84;5011074;28;20275;-57
2023/04/03 00:08:43;;;;;;;1.93;1.43;;;;;;;10.01;67.56;63994.53;5010912;28;20183;-59
2023/04/03 00:11:09;;;;;;;2.27;1.70;;;;;;;9.90;69.37;63978.00;5011237;28;20212;-56
2023/04/03 00:13:36;;;;;;;1.83;1.60;;;;;;;10.03;66.82;63991.69;5010960;28;20195;-56
2023/04/03 00:16:03;;;;;;;2.53;1.50;;;;;;;9.96;66.92;63989.59;5011413;28;20197;-53
2023/04/03 00:18:29;;;;;;;2.00;1.43;;;;;;;9.82;67.15;63973.72;4993320;28;20253;-56
2023/04/03 00:20:54;;;;;;;2.70;1.43;;;;;;;9.74;68.52;63960.50;5011059;28;20210;-55
2023/04/03 00:23:20;;;;;;;1.77;1.33;;;;;;;9.76;68.74;63965.22;5010818;28;20206;-52
2023/04/03 00:25:45;;;;;;;1.87;1.27;;;;;;;9.80;69.21;63969.03;5010748;28;20293;-57
2023/04/03 00:28:11;;;;;;;3.13;1.20;;;;;;;9.87;68.23;63977.25;5011755;28;20266;-55
2023/04/03 00:30:36;;;;;;;1.93;1.00;;;;;;;9.93;67.48;63983.25;5014340;28;20253;-54
2023/04/03 00:33:02;;;;;;;2.07;1.50;;;;;;;10.03;68.23;63997.25;5014201;28;20183;-52
2023/04/03 00:35:29;;;;;;;1.67;1.47;;;;;;;9.95;68.59;63985.44;5014354;28;20681;-56
2023/04/03 00:37:55;;;;;;;1.87;1.43;;;;;;;9.99;67.55;63990.38;5014061;28;20190;-57
2023/04/03 00:40:23;;;;;;;1.30;1.10;;;;;;;9.79;69.17;63968.50;5014357;28;20219;-53
2023/04/03 00:42:55;;;;;;;3.10;1.60;;;;;;;9.90;67.55;63983.03;5014026;28;20256;-52
2023/04/03 00:45:36;;;;;;;2.10;1.40;;;;;;;9.98;68.11;63993.75;5014091;28;20255;-55
2023/04/03 00:48:06;;;;;;;2.47;1.40;;;;;;;9.88;67.98;63978.31;5014118;28;20183;-57
2023/04/03 00:50:35;;;;;;;2.40;1.63;;;;;;;9.99;67.76;63990.38;5013723;28;20269;-52
2023/04/03 00:53:01;;;;;;;1.30;1.03;;;;;;;10.02;67.71;63993.63;4996171;28;20186;-52
2023/04/03 00:55:27;;;;;;;4.40;1.67;;;;;;;10.04;67.15;63995.84;5028974;28;20593;-56
2023/04/03 00:57:54;;;;;;;1.60;1.40;;;;;;;9.97;68.05;63990.69;5013765;28;20179;-56
2023/04/03 01:00:23;;;;;;;2.10;1.43;;;;;;;10.05;67.84;63996.38;5013893;28;20211;-56
2023/04/03 01:02:49;;;;;;;2.30;1.40;;;;;;;9.93;67.01;63983.81;5013853;28;20237;-54
2023/04/03 01:05:16;;;;;;;2.27;1.20;;;;;;;9.89;67.94;63981.94;5013625;28;20265;-56
2023/04/03 01:07:41;;;;;;;1.87;1.33;;;;;;;9.99;68.73;63992.34;5013676;28;20179;-51
2023/04/03 01:10:11;;;;;;;2.57;1.43;;;;;;;10.00;70.09;63991.47;5013603;28;20297;-55
2023/04/03 01:12:39;;;;;;;2.97;1.83;;;;;;;10.01;70.22;63990.03;5013861;28;20274;-53
2023/04/03 01:15:11;;;;;;;3.87;2.07;;;;;;;9.97;69.63;63990.69;5013727;28;20229;-58
2023/04/03 01:17:44;;;;;;;2.33;1.63;;;;;;;9.93;69.84;63983.81;5013706;28;20191;-55
2023/04/03 01:20:31;;;;;;;2.77;1.73;;;;;;;10.01;70.64;63995.06;5013457;28;20245;-55
2023/04/03 01:23:10;;;;;;;1.73;1.40;;;;;;;10.06;69.68;64000.53;5013528;28;20218;-52
2023/04/03 01:25:50;;;;;;;2.70;1.87;;;;;;;9.96;70.31;63987.09;5013617;28;20232;-55
2023/04/03 01:28:17;;;;;;;2.07;1.53;;;;;;;9.93;70.65;63980.75;5013425;28;20194;-53
2023/04/03 01:31:15;;;;;;;2.77;1.57;;;;;;;9.96;70.54;63987.09;5013322;28;20265;-53
2023/04/03 01:33:41;;;;;;;2.50;2.20;;;;;;;9.99;70.44;63990.38;5013431;28;20187;-51
2023/04/03 01:36:07;;;;;;;4.53;1.67;;;;;;;10.00;70.29;63991.47;5013260;28;20195;-54
2023/04/03 01:38:33;;;;;;;3.17;1.47;;;;;;;10.25;69.66;64020.25;5013177;28;20214;-52
2023/04/03 01:40:59;;;;;;;7.70;2.03;;;;;;;10.15;68.53;64004.81;5012451;28;20554;-57
2023/04/03 01:43:25;;;;;;;2.93;1.80;;;;;;;9.93;68.20;63983.81;5012959;28;20202;-58
2023/04/03 01:45:52;;;;;;;3.93;1.50;;;;;;;9.64;69.58;63954.59;5013249;28;20298;-52
2023/04/03 01:48:17;;;;;;;2.63;1.40;;;;;;;9.55;70.34;63947.28;5012964;28;20272;-55
2023/04/03 01:50:43;;;;;;;5.20;1.93;;;;;;;9.48;69.99;63934.59;5013059;28;20698;-50
2023/04/03 01:53:08;;;;;;;3.53;1.40;;;;;;;9.29;71.68;63911.31;5011855;28;20261;-53
2023/04/03 01:55:34;;;;;;;2.27;1.50;;;;;;;9.47;70.90;63935.47;5013017;28;20616;-57
2023/04/03 01:57:59;;;;;;;4.00;1.93;;;;;;;9.53;69.88;63942.59;5012813;28;20187;-57
2023/04/03 02:00:26;;;;;;;3.43;2.33;;;;;;;9.37;69.75;63925.09;5013069;28;20317;-52
2023/04/03 02:02:52;;;;;;;4.00;1.80;;;;;;;9.04;71.56;63886.50;5012790;28;20248;-56
2023/04/03 02:05:17;;;;;;;3.77;1.53;;;;;;;9.00;71.76;63882.13;5012886;28;20214;-55
2023/04/03 02:07:42;;;;;;;3.67;1.60;;;;;;;8.88;73.27;63869.00;5012783;28;20218;-57
2023/04/03 02:10:08;;;;;;;4.10;1.90;;;;;;;8.94;72.54;63875.56;5012681;28;20219;-53
2023/04/03 02:12:34;;;;;;;2.33;1.43;;;;;;;9.04;71.90;63889.56;5012641;28;20667;-53
2023/04/03 02:15:00;;;;;;;3.13;1.57;;;;;;;9.03;72.25;63887.94;5012398;28;20214;-55
2023/04/03 02:17:26;;;;;;;3.30;1.60;;;;;;;8.86;73.20;63867.38;5012532;28;20195;-50
2023/04/03 02:19:51;;;;;;;2.17;1.50;;;;;;;8.89;73.46;63875.13;5012535;28;20277;-51
2023/04/03 02:22:17;;;;;;;3.07;2.07;;;;;;;8.85;73.84;63868.78;5012452;28;20205;-57
2023/04/03 02:24:42;;;;;;;2.67;1.97;;;;;;;8.96;72.89;63880.81;5012306;28;20620;-53
2023/04/03 02:27:07;;;;;;;3.20;1.57;;;;;;;9.13;72.63;63896.88;5012490;28;20640;-56
2023/04/03 02:29:33;;;;;;;2.17;1.53;;;;;;;9.17;71.15;63900.72;5012295;28;20234;-56
2023/04/03 02:31:58;;;;;;;4.27;2.43;;;;;;;8.96;71.90;63877.75;5012273;28;20242;-51
2023/04/03 02:34:24;;;;;;;3.43;1.73;;;;;;;8.57;73.63;63837.66;5012256;28;20778;-52
2023/04/03 02:36:49;;;;;;;2.13;1.10;;;;;;;8.46;73.43;63826.19;5012430;28;20198;-52
2023/04/03 02:39:15;;;;;;;2.60;1.23;;;;;;;8.26;74.10;63802.38;5012155;28;20221;-55
2023/04/03 02:41:41;;;;;;;2.70;1.30;;;;;;;8.30;75.56;63803.69;5012204;28;20209;-57
2023/04/03 02:44:08;;;;;;;5.00;1.87;;;;;;;8.46;73.90;63826.72;4994554;28;20203;-57
2023/04/03 02:46:34;;;;;;;1.67;1.30;;;;;;;8.57;73.76;63838.19;5012806;28;20688;-52
2023/04/03 02:48:59;;;;;;;2.40;1.70;;;;;;;8.50;73.96;63828.06;5011922;28;20589;-58
2023/04/03 02:51:24;;;;;;;5.13;1.23;;;;;;;8.53;74.53;63831.31;5012152;28;20234;-58
2023/04/03 02:53:50;;;;;;;4.93;1.60;;;;;;;8.54;74.64;63834.94;5012162;28;20187;-52
2023/04/03 02:56:17;;;;;;;1.97;1.77;;;;;;;8.54;74.31;63834.94;5012272;28;20199;-56
2023/04/03 02:58:43;;;;;;;1.73;1.50;;;;;;;8.49;74.80;63829.47;5011863;28;20195;-58
2023/04/03 03:01:09;;;;;;;2.70;1.40;;;;;;;8.50;75.13;63830.00;5012145;28;20186;-51
2023/04/03 03:03:35;;;;;;;1.47;1.37;;;;;;;8.54;74.98;63829.91;5011785;28;20206;-54
2023/04/03 03:06:05;;;;;;;2.63;1.50;;;;;;;8.54;74.19;63832.41;5010588;28;20179;-55
2023/04/03 03:08:31;;;;;;;4.30;1.83;;;;;;;8.51;74.83;63826.06;5011837;28;20574;-53
2023/04/03 03:10:56;;;;;;;3.30;1.90;;;;;;;8.54;75.38;63832.41;5011871;28;20223;-52
2023/04/03 03:13:22;;;;;;;4.73;1.80;;;;;;;8.50;75.68;63825.53;5011771;28;20195;-52
2023/04/03 03:15:48;;;;;;;1.60;1.40;;;;;;;8.64;75.74;63842.78;5011934;28;20641;-55
2023/04/03 03:18:14;;;;;;;4.23;1.57;;;;;;;8.69;74.04;63850.75;5011646;28;20191;-55
2023/04/03 03:20:39;;;;;;;2.57;1.70;;;;;;;8.69;73.61;63848.25;5011759;28;20203;-52
2023/04/03 03:23:05;;;;;;;6.57;2.37;;;;;;;8.88;73.76;63869.00;5011609;28;20716;-52
2023/04/03 03:25:31;;;;;;;2.50;1.80;;;;;;;8.73;72.89;63855.69;4993851;28;20215;-52
2023/04/03 03:27:56;;;;;;;3.97;1.90;;;;;;;8.48;74.04;63828.91;5011460;28;20666;-52
2023/04/03 03:30:21;;;;;;;5.97;1.70;;;;;;;8.45;74.07;63823.13;5011518;28;20223;-51
2023/04/03 03:32:47;;;;;;;2.93;1.73;;;;;;;8.50;75.04;63830.56;5011516;28;20222;-52
2023/04/03 03:35:12;;;;;;;3.40;1.93;;;;;;;8.44;74.28;63824.53;5011317;28;20211;-52
2023/04/03 03:37:38;;;;;;;4.37;1.93;;;;;;;8.39;74.40;63818.53;5011281;28;20195;-52
2023/04/03 03:40:03;;;;;;;8.33;1.63;;;;;;;8.30;75.64;63806.75;5011416;28;20626;-53
2023/04/03 03:42:29;;;;;;;4.73;1.50;;;;;;;8.36;76.56;63813.28;5011314;28;20619;-53
2023/04/03 03:44:54;;;;;;;2.60;1.40;;;;;;;8.48;75.11;63827.81;4993595;28;20252;-56
2023/04/03 03:47:20;;;;;;;3.00;1.60;;;;;;;8.39;75.00;63818.53;5011203;28;20229;-52
2023/04/03 03:49:45;;;;;;;3.60;1.87;;;;;;;8.42;75.63;63821.81;5010978;28;20214;-53
2023/04/03 03:54:54;;;;;;;3.23;2.30;;;;;;;8.71;73.83;63850.44;5011425;28;20221;-53
2023/04/03 03:57:20;;;;;;;7.07;2.30;;;;;;;8.48;72.35;63825.88;4993529;28;20191;-53
2023/04/03 03:59:47;;;;;;;3.73;1.77;;;;;;;8.21;74.76;63799.41;5010985;28;20604;-53
2023/04/03 04:02:12;;;;;;;2.97;1.27;;;;;;;8.16;73.33;63793.41;5010967;28;20234;-58
2023/04/03 04:04:38;;;;;;;2.83;1.20;;;;;;;8.01;74.87;63772.00;5014026;28;20315;-57
2023/04/03 04:07:03;;;;;;;3.40;1.30;;;;;;;7.55;75.27;63727.91;5014642;28;20198;-55
2023/04/03 04:09:29;;;;;;;6.13;1.57;;;;;;;7.31;76.85;63698.69;5014430;28;20281;-57
2023/04/03 04:11:55;;;;;;;2.60;1.30;;;;;;;7.14;78.24;63680.69;5014466;28;20268;-56
2023/04/03 04:14:20;;;;;;;3.00;1.47;;;;;;;7.16;78.34;63687.88;5014446;28;20214;-52
2023/04/03 04:16:46;;;;;;;1.67;1.57;;;;;;;7.00;79.53;63667.91;4996990;28;20194;-54
2023/04/03 04:19:12;;;;;;;3.07;1.40;;;;;;;6.79;80.68;63645.56;5014431;28;20205;-52
2023/04/03 04:21:39;;;;;;;1.97;1.70;;;;;;;6.72;81.61;63637.38;5014355;28;20286;-52
2023/04/03 04:24:04;;;;;;;2.40;1.50;;;;;;;6.67;81.44;63632.47;5014282;28;20217;-52
2023/04/03 04:26:31;;;;;;;2.20;1.67;;;;;;;6.94;81.48;63660.81;4996458;28;20201;-51
2023/04/03 04:28:56;;;;;;;5.87;2.17;;;;;;;7.16;80.46;63687.88;5014136;28;20210;-53
2023/04/03 04:31:21;;;;;;;3.00;1.80;;;;;;;7.28;80.88;63698.44;5014205;28;20768;-52
2023/04/03 04:33:48;;;;;;;4.17;2.13;;;;;;;7.42;79.81;63710.66;5029487;28;20183;-53
2023/04/03 04:36:14;;;;;;;4.23;1.87;;;;;;;7.55;79.22;63727.91;5014180;28;20194;-51
2023/04/03 04:38:40;;;;;;;4.70;2.30;;;;;;;7.70;78.83;63743.72;5013824;28;20194;-56
2023/04/03 04:41:06;;;;;;;3.23;2.10;;;;;;;7.59;78.23;63731.72;5014359;28;20207;-58
2023/04/03 04:43:31;;;;;;;8.57;2.73;;;;;;;7.71;77.92;63742.31;5029126;28;20187;-56
2023/04/03 04:46:09;;;;;;;7.00;2.80;;;;;;;7.85;77.98;63759.56;5014148;28;20206;-58
2023/04/03 04:48:35;;;;;;;22.53;20.13;;;;;;;8.19;100.00;63794.72;5013859;28;20186;-55
2023/04/03 04:51:02;;;;;;;8.03;2.90;;;;;;;9.00;91.89;63884.63;5013932;28;20640;-52
2023/04/03 04:53:27;;;;;;;8.27;3.17;;;;;;;8.87;78.56;63870.41;5013837;28;20218;-51
2023/04/03 04:55:53;;;;;;;6.70;2.20;;;;;;;8.89;76.99;63870.09;5013855;28;20210;-57
2023/04/03 04:58:19;;;;;;;4.80;2.17;;;;;;;8.98;76.21;63880.50;5013882;28;20190;-56
2023/04/03 05:00:45;;;;;;;8.63;6.20;;;;;;;9.31;100.00;63919.06;5013816;28;20754;-52
2023/04/03 05:03:10;;;;;;;6.07;2.60;;;;;;;9.22;76.84;63908.69;5013712;28;20191;-55
2023/04/03 05:05:36;;;;;;;6.10;2.53;;;;;;;9.07;76.76;63890.31;5013660;28;20677;-53
2023/04/03 05:08:04;;;;;;;10.60;2.67;;;;;;;8.69;77.12;63850.75;5013435;28;20219;-53
2023/04/03 05:10:30;;;;;;;6.70;2.80;;;;;;;8.68;76.78;63847.16;4995944;28;20832;-58
2023/04/03 05:12:56;;;;;;;8.93;2.90;;;;;;;8.48;77.14;63827.81;5013476;28;20198;-53
2023/04/03 05:15:22;;;;;;;9.63;3.43;;;;;;;8.49;79.28;63829.47;5012233;28;20632;-58
2023/04/03 05:17:47;;;;;;;6.97;3.17;;;;;;;8.48;80.72;63825.31;5013626;28;20277;-57
2023/04/03 05:20:13;;;;;;;5.77;2.53;;;;;;;8.57;80.11;63835.13;5013469;28;20507;-52
2023/04/03 05:22:38;;;;;;;4.43;2.67;;;;;;;8.75;76.29;63857.31;5013434;28;20226;-52
2023/04/03 05:25:05;;;;;;;5.33;2.53;;;;;;;8.75;77.86;63855.34;5013474;28;20702;-55
2023/04/03 05:27:30;;;;;;;4.13;2.20;;;;;;;8.69;76.19;63850.75;4995890;28;20194;-53
2023/04/03 05:29:56;;;;;;;6.80;2.97;;;;;;;8.89;76.49;63873.16;5013390;28;20222;-51
2023/04/03 05:32:23;;;;;;;4.97;2.40;;;;;;;8.95;75.83;63876.66;5013163;28;20578;-52
2023/04/03 05:34:48;;;;;;;6.80;2.70;;;;;;;9.54;98.37;63943.09;5013209;28;20234;-52
2023/04/03 05:37:14;;;;;;;4.73;1.80;;;;;;;9.58;73.75;63947.50;5013228;28;20237;-54
2023/04/03 05:39:40;;;;;;;3.93;2.03;;;;;;;9.38;74.42;63923.09;4995501;28;20210;-54
2023/04/03 05:42:07;;;;;;;4.70;2.97;;;;;;;9.33;73.68;63915.69;5013327;28;20257;-52
2023/04/03 05:44:32;;;;;;;5.37;2.77;;;;;;;9.08;76.39;63890.88;5012920;28;20695;-57
2023/04/03 05:46:58;;;;;;;8.43;4.47;;;;;;;8.99;76.88;63883.53;5013208;28;20268;-57
2023/04/03 05:49:24;;;;;;;11.27;4.50;;;;;;;8.92;77.16;63870.88;5013230;28;20218;-53
2023/04/03 05:51:51;;;;;;;12.00;4.67;;;;;;;8.86;78.17;63864.31;5012811;28;20229;-53
2023/04/03 05:54:28;;;;;;;7.57;4.40;;;;;;;8.54;79.56;63834.38;5012891;28;20211;-58
2023/04/03 05:56:53;;;;;;;15.33;4.80;;;;;;;8.87;79.29;63865.94;5013114;28;20656;-52
2023/04/03 05:59:20;;;;;;;14.27;4.67;;;;;;;9.15;79.38;63899.06;5012862;28;20210;-55
2023/04/03 06:01:46;;;;;;;12.70;4.20;;;;;;;8.92;79.06;63875.91;5013020;28;20664;-60
2023/04/03 06:04:12;;;;;;;9.27;4.97;;;;;;;9.10;78.13;63893.06;5012681;28;20221;-56
2023/04/03 06:06:57;;;;;;;10.90;5.20;;;;;;;8.64;79.14;63843.34;5011476;28;20694;-59
2023/04/03 06:09:24;;;;;;;16.97;7.37;;;;;;;8.71;80.21;63850.97;5012709;28;20305;-58
2023/04/03 06:11:50;;;;;;;12.30;7.33;;;;;;;8.93;78.83;63879.50;5013003;28;20226;-60
2023/04/03 06:14:15;;;;;;;18.57;7.03;;;;;;;9.21;77.56;63905.09;5011711;28;20221;-57
2023/04/03 06:16:41;;;;;;;12.83;5.20;;;;;;;9.43;77.09;63928.59;4995113;28;20229;-61
2023/04/03 06:19:08;;;;;;;12.27;4.60;;;;;;;9.64;78.27;63952.09;5012653;28;20229;-54
2023/04/03 06:21:35;;;;;;;14.13;4.57;;;;;;;9.74;76.83;63964.97;4994733;28;20198;-55
2023/04/03 06:24:02;;;;;;;11.30;4.77;;;;;;;9.93;75.74;63983.25;5012459;28;20688;-53
2023/04/03 06:26:28;;;;;;;11.03;4.90;;;;;;;9.99;74.99;63990.38;5012127;28;20201;-58
2023/04/03 06:28:53;;;;;;;7.03;5.37;;;;;;;10.20;75.13;64012.81;5012362;28;20211;-54
2023/04/03 06:31:19;;;;;;;13.97;6.10;;;;;;;10.21;73.43;64016.44;5012737;28;20218;-53
2023/04/03 06:33:45;;;;;;;19.53;9.57;;;;;;;10.09;74.53;64003.81;5012385;28;20222;-53
2023/04/03 06:36:11;;;;;;;19.93;9.70;;;;;;;10.05;74.94;63999.44;5012685;28;20281;-54
2023/04/03 06:38:37;;;;;;;18.10;10.73;;;;;;;10.23;75.20;64018.06;5012281;28;20739;-52
2023/04/03 06:41:02;;;;;;;14.40;8.60;;;;;;;10.32;73.15;64025.97;5012543;28;20238;-60
2023/04/03 06:43:27;;;;;;;17.07;7.77;;;;;;;10.21;73.82;64011.38;5027605;28;20237;-57
2023/04/03 06:45:53;;;;;;;13.13;8.97;;;;;;;9.96;75.68;63986.53;5012011;28;20803;-57
2023/04/03 06:48:19;;;;;;;16.47;9.03;;;;;;;10.21;75.03;64013.91;5012234;28;20193;-52
2023/04/03 06:50:44;;;;;;;12.30;7.40;;;;;;;10.48;72.94;64043.47;5011853;28;20219;-56
2023/04/03 06:53:10;;;;;;;11.40;5.07;;;;;;;10.43;72.51;64037.97;5012203;28;20195;-54
2023/04/03 06:55:36;;;;;;;12.63;5.47;;;;;;;10.38;72.36;64032.53;5012269;28;20257;-59
2023/04/03 06:58:03;;;;;;;9.30;4.80;;;;;;;10.59;71.38;64054.94;5012063;28;20221;-57
2023/04/03 07:00:29;;;;;;;10.53;4.77;;;;;;;10.43;71.46;64037.44;5012065;28;20223;-52
2023/04/03 07:02:56;;;;;;;10.20;5.33;;;;;;;10.57;71.92;64053.31;5011844;28;20179;-53
2023/04/03 07:05:21;;;;;;;16.47;5.73;;;;;;;10.65;71.04;64064.56;5011849;28;20215;-63
2023/04/03 07:07:47;;;;;;;10.40;4.10;;;;;;;10.49;70.60;64047.06;5011806;28;20542;-57
2023/04/03 07:10:12;;;;;;;11.20;4.43;;;;;;;10.21;72.04;64013.91;5011695;28;20237;-53
2023/04/03 07:12:38;;;;;;;10.97;4.43;;;;;;;10.12;72.83;64004.59;5011847;28;20202;-57
2023/04/03 07:15:05;;;;;;;10.43;4.70;;;;;;;10.14;73.89;64008.75;5011798;28;20636;-53
2023/04/03 07:17:32;;;;;;;9.10;4.23;;;;;;;10.49;72.69;64044.00;4994157;28;20199;-58
2023/04/03 07:19:57;;;;;;;7.90;5.13;;;;;;;10.45;73.04;64039.63;5011830;28;20572;-53
2023/04/03 07:22:23;;;;;;;13.00;5.30;;;;;;;10.19;73.59;64011.16;5011645;28;20190;-55
2023/04/03 07:24:48;;;;;;;14.67;5.97;;;;;;;10.22;74.30;64015.00;5011814;28;20618;-57
2023/04/03 07:27:14;;;;;;;8.40;6.20;;;;;;;10.00;74.89;63993.41;5011479;28;20218;-57
2023/04/03 07:29:40;;;;;;;11.90;6.20;;;;;;;10.17;74.74;64011.50;5011435;28;20207;-53
2023/04/03 07:32:06;;;;;;;22.07;8.50;;;;;;;10.49;74.02;64047.06;5011378;28;20301;-53
2023/04/03 07:34:32;;;;;;;15.57;9.13;;;;;;;10.68;74.17;64064.81;5011273;28;20270;-52
2023/04/03 07:36:58;;;;;;;20.03;9.33;;;;;;;10.87;72.73;64088.13;5011028;28;20680;-54
2023/04/03 07:39:24;;;;;;;19.03;9.50;;;;;;;11.08;73.01;64106.06;5010842;28;20257;-52
2023/04/03 07:41:50;;;;;;;17.07;8.87;;;;;;;11.21;73.06;64124.81;5011853;28;20202;-56
2023/04/03 07:44:15;;;;;;;20.00;9.60;;;;;;;11.38;70.72;64143.44;5011284;28;20199;-55
2023/04/03 07:46:42;;;;;;;20.87;10.33;;;;;;;11.33;71.43;64133.44;5011712;28;20211;-54
2023/04/03 07:49:07;;;;;;;19.37;10.20;;;;;;;11.26;71.55;64128.31;5011239;28;20653;-53
2023/04/03 07:51:33;;;;;;;22.10;11.17;;;;;;;11.50;69.96;64151.53;5011430;28;20301;-57
2023/04/03 07:53:58;;;;;;;20.87;12.43;;;;;;;11.50;71.29;64154.59;5011212;28;20214;-54
2023/04/03 07:56:25;;;;;;;19.90;11.07;;;;;;;11.55;70.75;64160.06;5011297;28;20213;-56
2023/04/03 07:58:50;;;;;;;20.90;10.37;;;;;;;11.57;72.78;64162.25;5011033;28;20270;-57
2023/04/03 08:01:16;;;;;;;22.77;11.60;;;;;;;11.67;71.39;64172.69;5011608;28;20687;-56
2023/04/03 08:03:41;;;;;;;22.20;11.63;;;;;;;11.71;70.49;64177.63;5011185;28;20202;-56
2023/04/03 08:06:08;;;;;;;21.50;11.13;;;;;;;11.92;70.11;64202.09;5011511;28;20540;-54
2023/04/03 08:08:34;;;;;;;24.87;12.07;;;;;;;11.99;71.00;64209.75;5011090;28;20179;-56
2023/04/03 08:11:07;;;;;;;17.20;10.83;;;;;;;12.08;70.69;64220.16;5026222;28;20211;-54
2023/04/03 08:13:35;;;;;;;23.73;10.93;;;;;;;12.14;68.08;64224.22;5010910;28;20671;-53
2023/04/03 08:16:09;;;;;;;18.17;10.53;;;;;;;11.83;69.85;64190.25;5010878;28;20199;-53
2023/04/03 08:18:35;;;;;;;20.03;10.47;;;;;;;11.69;70.31;64172.94;5010966;28;20232;-52
2023/04/03 08:21:00;;;;;;;21.53;10.93;;;;;;;11.67;71.01;64170.72;5009793;28;20235;-53
2023/04/03 08:23:26;;;;;;;19.83;11.30;;;;;;;11.78;71.39;64187.81;5011051;28;20218;-56
2023/04/03 08:25:52;;;;;;;19.60;11.33;;;;;;;11.93;70.54;64201.19;5010755;28;20298;-55
2023/04/03 08:28:17;;;;;;;19.13;10.80;;;;;;;12.00;70.80;64208.31;5010853;28;20568;-57
2023/04/03 08:30:43;;;;;;;20.47;11.30;;;;;;;12.08;68.50;64217.63;5011033;28;20334;-56
2023/04/03 08:33:10;;;;;;;20.40;11.23;;;;;;;11.87;69.80;64194.06;5010740;28;20225;-51
2023/04/03 08:35:40;;;;;;;17.60;11.73;;;;;;;12.03;69.79;64211.59;5018526;22;20269;-53
2023/04/03 08:38:06;;;;;;;20.27;11.60;;;;;;;12.35;69.31;64249.22;5010666;28;20696;-60
2023/04/03 08:40:31;;;;;;;25.40;12.00;;;;;;;12.56;68.49;64267.72;5010496;28;20766;-51
2023/04/03 08:43:37;;;;;;;29.47;12.63;;;;;;;12.54;67.19;64268.06;5011015;28;20191;-52
2023/04/03 08:46:11;;;;;;;21.70;13.10;;;;;;;12.44;68.64;64257.09;5010324;28;20294;-55
2023/04/03 08:48:41;;;;;;;29.33;12.50;;;;;;;12.46;66.14;64261.81;5010705;28;20214;-56
2023/04/03 08:51:26;;;;;;;24.47;12.33;;;;;;;12.38;71.57;64250.53;5013758;28;20585;-53
2023/04/03 08:53:52;;;;;;;23.80;12.13;;;;;;;12.30;67.40;64239.22;5013678;28;20285;-51
2023/04/03 08:56:18;;;;;;;23.17;11.10;;;;;;;12.27;66.65;64240.44;5013636;28;20241;-58
2023/04/03 08:58:55;;;;;;;16.97;10.83;;;;;;;12.28;67.47;64239.56;5013704;28;20661;-53
2023/04/03 09:01:34;;;;;;;15.90;10.03;;;;;;;12.35;67.24;64247.25;4996138;28;20281;-54
2023/04/03 09:04:11;;;;;;;17.83;8.87;;;;;;;12.50;65.73;64263.16;5013831;28;20273;-53
2023/04/03 09:06:38;;;;;;;13.30;8.33;;;;;;;12.24;66.72;64237.69;5013903;28;20193;-57
2023/04/03 09:09:30;;;;;;;15.67;9.07;;;;;;;12.23;68.10;64231.00;5013806;28;20206;-56
2023/04/03 09:12:18;;;;;;;23.90;8.77;;;;;;;12.48;67.93;64260.94;5013666;28;20245;-54
2023/04/03 09:14:56;;;;;;;23.67;9.63;;;;;;;12.73;67.62;64285.84;5013681;28;20211;-55
2023/04/03 09:17:34;;;;;;;17.17;8.37;;;;;;;12.73;67.18;64285.28;5013706;28;20245;-57
2023/04/03 09:20:06;;;;;;;14.77;7.93;;;;;;;12.80;67.30;64296.06;4995870;28;20222;-58
2023/04/03 09:22:33;;;;;;;17.37;7.77;;;;;;;12.88;66.14;64301.75;5013620;28;20199;-51
2023/04/03 09:25:12;;;;;;;13.37;7.57;;;;;;;13.02;64.73;64322.72;5013334;28;20211;-53
2023/04/03 09:27:38;;;;;;;16.13;7.07;;;;;;;13.12;66.28;64328.66;5013418;28;20186;-53
2023/04/03 09:30:04;;;;;;;15.53;7.03;;;;;;;13.29;65.43;64346.75;5013249;28;20225;-57
2023/04/03 09:32:32;;;;;;;12.07;6.90;;;;;;;13.24;64.59;64344.34;5013323;28;20301;-56
2023/04/03 09:35:18;;;;;;;10.33;6.83;;;;;;;13.39;65.27;64360.81;5013568;28;20329;-53
2023/04/03 09:37:50;;;;;;;15.57;6.67;;;;;;;13.58;64.05;64381.13;5013171;28;20290;-53
2023/04/03 09:40:25;;;;;;;10.97;5.60;;;;;;;13.77;62.80;64401.44;5013290;28;20289;-55
2023/04/03 09:42:52;;;;;;;6.73;3.87;;;;;;;13.57;62.27;64379.47;5013335;28;20198;-56
2023/04/03 09:45:34;;;;;;;8.70;4.03;;;;;;;13.51;62.99;64375.41;5012899;28;20210;-59
2023/04/03 09:48:08;;;;;;;9.50;4.53;;;;;;;13.60;62.88;64383.31;5013442;28;20245;-54
2023/04/03 09:50:42;;;;;;;7.23;5.73;;;;;;;13.63;62.33;64384.06;5013277;28;20215;-59
2023/04/03 09:53:27;;;;;;;9.70;5.78;;;;;;;13.60;64.11;64380.22;5013203;28;20727;-56
2023/04/03 09:55:53;;;;;;;13.13;5.37;;;;;;;13.72;63.89;64399.00;5013144;28;20210;-57
2023/04/03 09:58:33;;;;;;;14.35;5.07;;;;;;;13.84;62.59;64404.03;5012777;28;20248;-54
2023/04/03 10:01:01;;;;;;;14.37;5.80;;;;;;;13.93;61.78;64419.00;5012021;28;20222;-53
2023/04/03 10:03:34;;;;;;;9.27;5.45;;;;;;;13.73;61.58;64395.06;5012984;28;20582;-57
2023/04/03 10:06:00;;;;;;;12.87;5.50;;;;;;;13.56;63.20;64376.38;5012886;28;20203;-58
2023/04/03 10:08:31;;;;;;;11.88;5.93;;;;;;;13.74;62.88;64396.16;5012959;28;20249;-56
2023/04/03 10:11:10;;;;;;;7.50;4.73;;;;;;;13.41;63.05;64359.94;5012558;28;20238;-58
2023/04/03 10:13:36;;;;;;;8.00;5.03;;;;;;;13.43;63.67;64362.13;4994889;28;20200;-57
2023/04/03 10:16:12;;;;;;;9.50;5.57;;;;;;;13.54;63.09;64373.63;4994887;28;20195;-57
2023/04/03 10:18:49;;;;;;;7.77;4.47;;;;;;;13.58;62.43;64378.59;4994801;28;20214;-52
2023/04/03 10:21:42;;;;;;;10.07;4.70;;;;;;;13.57;61.59;64382.00;5012567;28;20248;-53
2023/04/03 10:24:08;;;;;;;5.80;3.80;;;;;;;13.55;59.39;64372.75;4995362;28;20712;-54
2023/04/03 10:26:49;;;;;;;8.73;3.85;;;;;;;13.61;59.28;64384.41;5012535;28;20684;-53
2023/04/03 10:29:36;;;;;;;3.77;2.90;;;;;;;13.45;58.09;64366.84;5012324;28;20226;-55
2023/04/03 10:32:13;;;;;;;13.50;3.57;;;;;;;13.24;59.53;64341.25;5012127;28;20598;-57
2023/04/03 10:34:47;;;;;;;5.77;3.10;;;;;;;13.23;60.89;64340.72;4994737;28;20229;-58
2023/04/03 10:37:28;;;;;;;5.13;2.70;;;;;;;13.25;60.11;64342.91;5012645;28;20186;-53
2023/04/03 10:40:26;;;;;;;4.20;2.20;;;;;;;13.18;61.04;64340.28;5012550;28;20238;-52
2023/04/03 10:43:09;;;;;;;2.93;2.47;;;;;;;13.20;58.85;64341.94;5012290;28;20191;-57
2023/04/03 10:45:51;;;;;;;5.10;2.53;;;;;;;13.08;59.29;64326.78;5012181;28;20214;-55
2023/04/03 10:48:47;;;;;;;8.30;2.70;;;;;;;13.09;58.75;64325.34;5012437;28;20241;-52
2023/04/03 10:51:42;;;;;;;4.63;2.47;;;;;;;12.96;60.50;64311.06;5011930;28;20223;-54
2023/04/03 10:54:29;;;;;;;3.73;2.53;;;;;;;12.91;59.93;64308.09;5012038;28;20269;-54
2023/04/03 10:57:01;;;;;;;3.93;2.53;;;;;;;12.91;60.41;64307.56;5011993;28;20205;-54
2023/04/03 11:00:10;;;;;;;3.60;2.40;;;;;;;12.85;60.63;64301.53;5012142;28;20571;-53
2023/04/03 11:02:53;;;;;;;5.87;2.43;;;;;;;12.82;62.35;64297.69;4978986;28;20210;-54
2023/04/03 11:05:46;;;;;;;3.17;2.00;;;;;;;12.76;64.06;64288.56;5009383;28;20722;-58
2023/04/03 11:08:33;;;;;;;2.50;2.17;;;;;;;12.75;66.68;64290.56;4991776;28;20233;-56
2023/04/03 11:11:05;;;;;;;3.57;2.30;;;;;;;12.74;66.80;64286.94;4992078;28;20215;-58
2023/04/03 11:13:39;;;;;;;5.00;2.23;;;;;;;12.74;68.06;64288.91;4991932;28;20277;-54
2023/04/03 11:16:06;;;;;;;6.07;2.50;;;;;;;12.64;72.67;64281.03;5029728;23;20236;-52
2023/04/03 11:18:42;;;;;;;2.70;2.30;;;;;;;12.66;73.31;64283.75;5031461;28;20189;-52
2023/04/03 11:21:13;;;;;;;3.53;2.27;;;;;;;12.76;75.95;64291.66;5011977;28;20201;-55
2023/04/03 11:23:40;;;;;;;3.97;2.40;;;;;;;12.65;79.96;64282.66;5011632;28;20301;-51
2023/04/03 11:26:12;;;;;;;2.33;1.93;;;;;;;12.63;79.13;64274.88;5011648;28;20202;-55
2023/04/03 11:28:38;;;;;;;4.63;2.50;;;;;;;12.64;79.35;64279.03;5011576;28;20252;-58
2023/04/03 11:31:29;;;;;;;2.90;2.40;;;;;;;12.43;81.98;64253.47;5011367;28;20740;-58
2023/04/03 11:34:06;;;;;;;2.53;1.83;;;;;;;12.59;82.33;64273.00;5011533;28;20226;-55
2023/04/03 11:36:40;;;;;;;4.27;2.60;;;;;;;12.32;86.11;64240.88;5011630;28;20191;-55
2023/04/03 11:39:23;;;;;;;4.57;2.47;;;;;;;12.14;89.69;64223.66;5011392;28;20226;-53
2023/04/03 11:41:49;;;;;;;6.23;2.23;;;;;;;12.13;89.24;64222.56;5011693;28;20645;-55
2023/04/03 11:44:38;;;;;;;2.93;2.17;;;;;;;12.12;91.57;64219.50;5011242;28;20692;-57
2023/04/03 11:47:08;;;;;;;5.00;2.50;;;;;;;12.03;92.01;64211.59;5003461;28;20715;-60